createdAt,value
2023-02-15T00:00:45.593Z,99.90
2023-02-15T00:11:08.448Z,99.90
2023-02-15T00:13:37.370Z,99.90
2023-02-15T00:16:09.108Z,99.90
2023-02-15T00:18:36.897Z,99.90
2023-02-15T00:21:07.504Z,99.90
2023-02-15T00:23:36.098Z,99.90
2023-02-15T00:26:08.552Z,99.90
2023-02-15T00:28:36.314Z,99.90
2023-02-15T00:31:06.544Z,99.90
2023-02-15T00:33:37.503Z,99.90
2023-02-15T00:36:10.151Z,99.90
2023-02-15T00:41:08.062Z,99.90
2023-02-15T00:43:36.500Z,99.90
2023-02-15T00:46:06.352Z,99.90
2023-02-15T00:48:34.469Z,99.90
2023-02-15T00:56:00.291Z,99.90
2023-02-15T01:00:56.239Z,99.90
2023-02-15T01:03:24.786Z,99.90
2023-02-15T01:05:52.325Z,99.90
2023-02-15T01:08:20.725Z,99.90
2023-02-15T01:10:50.996Z,99.90
2023-02-15T01:13:18.981Z,99.90
2023-02-15T01:15:47.024Z,99.90
2023-02-15T01:20:43.076Z,99.90
2023-02-15T01:23:10.474Z,99.90
2023-02-15T01:30:35.218Z,99.90
2023-02-15T01:35:32.810Z,99.90
2023-02-15T01:42:57.102Z,99.90
2023-02-15T01:45:28.133Z,99.90
2023-02-15T01:50:36.460Z,99.90
2023-02-15T01:53:33.647Z,99.90
2023-02-15T01:56:10.188Z,99.90
2023-02-15T01:58:38.536Z,99.90
2023-02-15T02:01:09.213Z,99.90
2023-02-15T02:16:20.225Z,99.90
2023-02-15T02:18:58.508Z,99.90
2023-02-15T02:21:58.753Z,99.90
2023-02-15T02:24:44.988Z,99.90
2023-02-15T02:27:34.668Z,99.90
2023-02-15T02:30:08.750Z,99.90
2023-02-15T02:33:12.398Z,99.90
2023-02-15T02:38:23.172Z,99.90
2023-02-15T02:41:08.917Z,99.90
2023-02-15T02:43:56.436Z,99.90
2023-02-15T02:46:31.504Z,99.90
2023-02-15T02:54:00.819Z,99.90
2023-02-15T02:56:37.426Z,99.90
2023-02-15T02:59:12.954Z,99.90
2023-02-15T03:02:14.265Z,99.90
2023-02-15T03:04:59.650Z,99.90
2023-02-15T03:07:29.942Z,99.90
2023-02-15T03:10:01.654Z,99.90
2023-02-15T03:12:38.606Z,99.90
2023-02-15T03:15:50.531Z,99.90
2023-02-15T03:18:21.271Z,99.90
2023-02-15T03:20:50.443Z,99.90
2023-02-15T03:23:21.793Z,99.90
2023-02-15T03:25:54.389Z,99.90
2023-02-15T03:28:47.024Z,99.90
2023-02-15T03:31:18.067Z,99.90
2023-02-15T03:33:59.302Z,99.90
2023-02-15T03:36:45.747Z,99.90
2023-02-15T03:39:33.106Z,99.90
2023-02-15T03:42:08.474Z,99.90
2023-02-15T03:45:01.722Z,99.90
2023-02-15T03:47:41.024Z,99.90
2023-02-15T03:50:31.593Z,99.90
2023-02-15T03:53:04.005Z,99.90
2023-02-15T04:01:23.813Z,99.90
2023-02-15T04:03:58.921Z,99.90
2023-02-15T04:27:45.880Z,99.90
2023-02-15T04:30:15.422Z,99.90
2023-02-15T04:37:41.211Z,99.90
2023-02-15T04:40:12.026Z,99.90
2023-02-15T05:55:06.140Z,99.90
2023-02-15T06:00:05.510Z,99.90
2023-02-15T06:05:09.052Z,99.90
2023-02-15T06:10:06.000Z,99.90
2023-02-15T07:27:13.356Z,99.90
2023-02-15T08:14:15.206Z,99.90
2023-02-15T08:16:44.532Z,99.90
2023-02-15T08:19:18.169Z,99.90
2023-02-15T08:21:49.732Z,99.90
2023-02-15T08:24:20.312Z,99.90
2023-02-15T08:29:18.469Z,99.90
2023-02-15T08:34:18.273Z,99.90
2023-02-15T08:39:15.953Z,99.90
2023-02-15T08:41:45.865Z,99.90
2023-02-15T08:46:43.146Z,99.90
2023-02-15T08:49:14.589Z,99.90
2023-02-15T08:51:43.031Z,99.90
2023-02-15T08:54:14.403Z,99.90
2023-02-15T08:56:43.669Z,99.90
2023-02-15T08:59:22.945Z,99.90
2023-02-15T09:01:52.365Z,99.90
2023-02-15T09:06:50.003Z,99.90
2023-02-15T09:09:19.108Z,99.90
2023-02-15T09:11:49.005Z,99.90
2023-02-15T09:14:21.996Z,99.90
2023-02-15T09:16:52.015Z,99.90
2023-02-15T09:19:21.873Z,99.90
2023-02-15T09:21:49.488Z,99.90
2023-02-15T09:24:18.251Z,99.90
2023-02-15T09:26:48.236Z,99.90
2023-02-15T09:29:17.399Z,99.90
2023-02-15T09:31:47.299Z,99.90
2023-02-15T09:34:18.320Z,99.90
2023-02-15T09:39:24.962Z,99.90
2023-02-15T09:42:10.583Z,99.90
2023-02-15T09:44:53.457Z,99.90
2023-02-15T09:47:45.274Z,99.90
2023-02-15T09:50:22.255Z,1.00
2023-02-15T09:53:04.772Z,1.00
2023-02-15T09:56:19.562Z,1.00
2023-02-15T09:59:18.348Z,1.00
2023-02-15T10:02:21.722Z,1.00
2023-02-15T10:05:14.141Z,1.00
2023-02-15T10:07:57.700Z,1.00
2023-02-15T10:10:49.977Z,1.00
2023-02-15T10:13:46.828Z,1.00
2023-02-15T10:16:37.220Z,1.00
2023-02-15T10:19:30.295Z,1.00
2023-02-15T10:22:17.859Z,1.00
2023-02-15T10:27:23.240Z,1.00
2023-02-15T10:30:15.493Z,1.00
2023-02-15T10:33:03.387Z,1.00
2023-02-15T10:35:47.096Z,1.00
2023-02-15T10:38:35.243Z,1.00
2023-02-15T10:43:51.063Z,1.00
2023-02-15T10:46:37.399Z,1.00
2023-02-15T10:49:23.107Z,1.00
2023-02-15T10:52:03.762Z,1.00
2023-02-15T10:54:41.942Z,1.00
2023-02-15T10:57:33.765Z,1.00
2023-02-15T11:00:15.601Z,1.00
2023-02-15T11:02:55.534Z,1.00
2023-02-15T11:05:30.173Z,1.00
2023-02-15T11:08:02.960Z,1.00
2023-02-15T11:10:45.449Z,1.00
2023-02-15T11:13:18.402Z,1.00
2023-02-15T11:15:55.699Z,1.00
2023-02-15T11:18:33.621Z,1.00
2023-02-15T11:21:26.342Z,1.00
2023-02-15T11:26:39.667Z,1.00
2023-02-15T11:29:27.616Z,1.00
2023-02-15T11:32:18.909Z,1.00
2023-02-15T11:35:13.955Z,1.00
2023-02-15T11:37:52.630Z,1.00
2023-02-15T11:40:29.814Z,1.00
2023-02-15T11:43:03.801Z,1.00
2023-02-15T11:45:37.373Z,1.00
2023-02-15T11:48:13.112Z,1.00
2023-02-15T11:50:43.808Z,1.00
2023-02-15T11:53:27.985Z,1.00
2023-02-15T11:55:57.187Z,1.00
2023-02-15T11:58:38.864Z,1.00
2023-02-15T12:01:31.811Z,1.00
2023-02-15T12:04:26.661Z,1.00
2023-02-15T12:07:04.577Z,1.00
2023-02-15T12:09:42.735Z,1.00
2023-02-15T12:12:26.942Z,1.00
2023-02-15T12:14:58.298Z,1.00
2023-02-15T12:17:37.186Z,1.00
2023-02-15T12:20:22.271Z,1.00
2023-02-15T12:23:03.566Z,1.00
2023-02-15T12:25:37.606Z,1.00
2023-02-15T12:28:19.412Z,1.00
2023-02-15T12:30:48.099Z,1.00
2023-02-15T12:33:46.743Z,1.00
2023-02-15T12:36:21.817Z,1.00
2023-02-15T12:39:14.454Z,1.00
2023-02-15T12:42:02.782Z,1.00
2023-02-15T12:44:34.673Z,1.00
2023-02-15T12:47:05.865Z,1.00
2023-02-15T12:49:38.305Z,1.00
2023-02-15T12:52:27.434Z,1.00
2023-02-15T12:54:55.449Z,1.00
2023-02-15T12:57:30.274Z,1.00
2023-02-15T12:59:59.789Z,1.00
2023-02-15T13:02:42.936Z,1.00
2023-02-15T13:05:32.992Z,1.00
2023-02-15T13:08:28.901Z,1.00
2023-02-15T13:11:04.768Z,1.00
2023-02-15T13:13:39.172Z,1.00
2023-02-15T13:16:13.348Z,1.00
2023-02-15T13:18:46.751Z,1.00
2023-02-15T13:23:49.772Z,1.00
2023-02-15T13:26:22.368Z,1.00
2023-02-15T13:29:00.028Z,1.00
2023-02-15T13:31:35.711Z,1.00
2023-02-15T13:34:32.910Z,1.00
2023-02-15T13:37:18.204Z,1.00
2023-02-15T13:40:09.264Z,1.00
2023-02-15T13:43:11.793Z,1.00
2023-02-15T13:45:46.095Z,1.00
2023-02-15T13:48:31.408Z,1.00
2023-02-15T13:51:15.011Z,1.00
2023-02-15T13:54:10.933Z,1.00
2023-02-15T13:56:56.854Z,1.00
2023-02-15T13:59:57.828Z,1.00
2023-02-15T14:02:49.836Z,1.00
2023-02-15T14:07:58.906Z,1.00
2023-02-15T14:10:52.760Z,1.00
2023-02-15T14:18:45.113Z,1.00
2023-02-15T14:21:35.782Z,1.00
2023-02-15T14:24:28.278Z,1.00
2023-02-15T14:27:10.870Z,1.00
2023-02-15T14:29:38.253Z,1.00
2023-02-15T14:32:12.973Z,1.00
2023-02-15T14:34:46.938Z,1.00
2023-02-15T14:37:24.301Z,1.00
2023-02-15T14:40:30.156Z,1.00
2023-02-15T14:43:10.529Z,1.00
2023-02-15T14:45:51.305Z,1.00
2023-02-15T14:48:34.720Z,1.00
2023-02-15T14:51:02.827Z,1.00
2023-02-15T14:53:39.444Z,1.00
2023-02-15T14:56:11.560Z,1.00
2023-02-15T14:58:58.180Z,1.00
2023-02-15T15:01:35.310Z,1.00
2023-02-15T15:04:07.483Z,1.00
2023-02-15T15:06:37.438Z,1.00
2023-02-15T15:09:24.391Z,1.00
2023-02-15T15:11:53.937Z,1.00
2023-02-15T15:14:36.038Z,1.00
2023-02-15T15:17:07.450Z,1.00
2023-02-15T15:22:23.662Z,1.00
2023-02-15T15:24:59.763Z,1.00
2023-02-15T15:27:51.444Z,1.00
2023-02-15T15:32:59.138Z,1.00
2023-02-15T15:35:56.851Z,1.00
2023-02-15T15:38:57.453Z,1.00
2023-02-15T15:41:44.433Z,1.00
2023-02-15T15:44:45.740Z,1.00
2023-02-15T15:47:28.780Z,1.00
2023-02-15T15:49:58.372Z,1.00
2023-02-15T15:55:03.303Z,1.00
2023-02-15T15:57:38.903Z,1.00
2023-02-15T16:00:43.155Z,1.00
2023-02-15T16:03:22.040Z,1.00
2023-02-15T16:08:29.319Z,1.00
2023-02-15T16:10:57.526Z,1.00
2023-02-15T16:15:56.063Z,1.00
2023-02-15T16:18:28.416Z,1.00
2023-02-15T16:21:01.367Z,1.00
2023-02-15T16:24:00.778Z,1.00
2023-02-15T16:26:56.707Z,1.00
2023-02-15T16:29:33.252Z,1.00
2023-02-15T16:32:21.715Z,1.00
2023-02-15T16:35:00.821Z,1.00
2023-02-15T16:37:34.172Z,1.00
2023-02-15T16:45:14.839Z,1.00
2023-02-15T16:47:46.295Z,1.00
2023-02-15T16:50:50.859Z,1.00
2023-02-15T16:53:25.372Z,1.00
2023-02-15T16:55:56.749Z,1.00
2023-02-15T16:58:38.745Z,1.00
2023-02-15T17:01:10.566Z,1.00
2023-02-15T17:03:39.594Z,1.00
2023-02-15T17:06:24.516Z,1.00
2023-02-15T17:08:52.148Z,1.00
2023-02-15T17:11:22.168Z,1.00
2023-02-15T17:14:09.814Z,1.00
2023-02-15T17:17:01.949Z,1.00
2023-02-15T17:19:42.371Z,1.00
2023-02-15T17:22:22.485Z,1.00
2023-02-15T17:24:58.096Z,1.00
2023-02-15T17:27:29.208Z,1.00
2023-02-15T17:29:59.171Z,1.00
2023-02-15T17:32:30.713Z,1.00
2023-02-15T17:35:01.607Z,1.00
2023-02-15T17:37:38.482Z,1.00
2023-02-15T17:40:28.433Z,1.00
2023-02-15T17:42:56.079Z,1.00
2023-02-15T17:45:30.540Z,1.00
2023-02-15T17:47:59.896Z,1.00
2023-02-15T17:50:28.681Z,21.20
2023-02-15T17:52:59.554Z,18.60
2023-02-15T17:55:35.912Z,13.50
2023-02-15T17:58:07.258Z,11.80
2023-02-15T18:01:05.768Z,11.60
2023-02-15T18:04:02.852Z,41.50
2023-02-15T18:06:49.064Z,55.50
2023-02-15T18:09:40.498Z,80.00
2023-02-15T18:12:32.287Z,94.40
2023-02-15T18:15:02.105Z,92.20
2023-02-15T18:17:42.103Z,91.80
2023-02-15T18:20:29.704Z,99.90
2023-02-15T18:25:27.570Z,99.90
2023-02-15T18:30:27.281Z,99.90
2023-02-15T18:32:58.516Z,99.90
2023-02-15T18:35:31.748Z,99.90
2023-02-15T18:38:01.590Z,99.90
2023-02-15T18:45:33.763Z,99.90
2023-02-15T18:48:02.484Z,99.90
2023-02-15T18:50:35.476Z,99.90
2023-02-15T18:53:13.030Z,99.90
2023-02-15T18:58:28.957Z,99.90
2023-02-15T19:03:33.421Z,99.90
2023-02-15T19:06:08.275Z,99.90
2023-02-15T19:08:40.792Z,99.90
2023-02-15T19:11:27.905Z,99.90
2023-02-15T19:16:36.482Z,99.90
2023-02-15T19:24:08.209Z,99.90
2023-02-15T19:26:45.579Z,99.90
2023-02-15T19:29:16.210Z,99.90
2023-02-15T19:34:18.213Z,99.90
2023-02-15T19:36:49.160Z,99.90
2023-02-15T19:39:25.675Z,99.90
2023-02-15T19:54:34.258Z,99.90
2023-02-15T19:57:02.596Z,99.90
2023-02-15T19:59:34.488Z,99.90
2023-02-15T20:02:02.733Z,99.90
2023-02-15T20:04:30.492Z,99.90
2023-02-15T20:07:01.837Z,99.90
2023-02-15T20:09:41.191Z,99.90
2023-02-15T20:12:26.165Z,99.90
2023-02-15T20:14:56.391Z,99.90
2023-02-15T20:17:25.879Z,99.90
2023-02-15T20:19:53.894Z,99.90
2023-02-15T20:22:26.527Z,99.90
2023-02-15T20:24:57.386Z,99.90
2023-02-15T20:27:26.679Z,99.90
2023-02-15T20:32:26.480Z,99.90
2023-02-15T20:34:54.551Z,99.90
2023-02-15T20:37:26.789Z,99.90
2023-02-15T20:39:55.339Z,99.90
2023-02-15T20:42:26.028Z,99.90
2023-02-15T20:44:53.659Z,99.90
2023-02-15T20:47:21.680Z,99.90
2023-02-15T20:49:49.132Z,99.90
2023-02-15T20:52:21.236Z,99.90
2023-02-15T20:54:49.138Z,99.90
2023-02-15T20:57:16.984Z,99.90
2023-02-15T20:59:44.535Z,99.90
2023-02-15T21:02:23.221Z,99.90
2023-02-15T21:04:50.923Z,99.90
2023-02-15T21:07:21.907Z,99.90
2023-02-15T21:09:49.818Z,99.90
2023-02-15T21:12:19.895Z,99.90
2023-02-15T21:14:47.517Z,99.90
2023-02-15T21:17:17.050Z,99.90
2023-02-15T21:19:44.920Z,99.90
2023-02-15T21:22:15.112Z,99.90
2023-02-15T21:24:51.931Z,99.90
2023-02-15T21:27:19.828Z,99.90
2023-02-15T21:29:47.452Z,99.90
2023-02-15T21:32:15.465Z,99.90
2023-02-15T21:34:43.065Z,99.90
2023-02-15T21:37:35.708Z,99.90
2023-02-15T21:40:06.051Z,99.90
2023-02-15T21:42:52.223Z,99.90
2023-02-15T21:45:38.512Z,99.90
2023-02-15T21:48:06.473Z,99.90
2023-02-15T21:50:54.431Z,99.90
2023-02-15T21:53:30.315Z,99.90
2023-02-15T21:55:59.638Z,99.90
2023-02-15T21:58:30.070Z,99.90
2023-02-15T22:01:01.367Z,99.90
2023-02-15T22:03:35.642Z,99.90
2023-02-15T22:06:04.440Z,99.90
2023-02-15T22:08:32.693Z,99.90
2023-02-15T22:11:00.358Z,99.90
2023-02-15T22:13:30.992Z,99.90
2023-02-15T22:15:59.434Z,99.90
2023-02-15T22:18:33.610Z,99.90
2023-02-15T22:21:02.726Z,99.90
2023-02-15T22:23:31.162Z,99.90
2023-02-15T22:26:03.045Z,99.90
2023-02-15T22:28:36.240Z,99.90
2023-02-15T22:31:04.840Z,99.90
2023-02-15T22:33:34.379Z,99.90
2023-02-15T22:36:02.381Z,99.90
2023-02-15T22:38:30.236Z,99.90
2023-02-15T22:41:04.201Z,99.90
2023-02-15T22:43:39.123Z,99.90
2023-02-15T22:46:20.184Z,99.90
2023-02-15T22:48:49.029Z,99.90
2023-02-15T22:51:20.257Z,99.90
2023-02-15T22:53:49.819Z,99.90
2023-02-15T22:56:21.090Z,99.90
2023-02-15T22:58:50.589Z,99.90
2023-02-15T23:01:29.889Z,99.90
2023-02-15T23:03:57.573Z,99.90
2023-02-15T23:06:25.128Z,99.90
2023-02-15T23:08:52.819Z,99.90
2023-02-15T23:11:20.818Z,99.90
2023-02-15T23:13:50.035Z,99.90
2023-02-15T23:16:18.420Z,99.90
2023-02-15T23:18:47.693Z,99.90
2023-02-15T23:21:26.981Z,99.90
2023-02-15T23:24:21.312Z,99.90
2023-02-15T23:26:49.842Z,99.90
2023-02-15T23:29:22.977Z,99.90
2023-02-15T23:31:53.665Z,99.90
2023-02-15T23:34:26.685Z,99.90
2023-02-15T23:36:54.068Z,99.90
2023-02-15T23:39:43.155Z,99.90
2023-02-15T23:42:31.926Z,99.90
2023-02-15T23:47:54.673Z,99.90
2023-02-15T23:50:28.441Z,99.90
2023-02-15T23:52:57.221Z,99.90
2023-02-15T23:55:39.884Z,99.90
2023-02-15T23:58:14.972Z,99.90
